^^
Station Historical Data
Daily Summary for Nil La, TWC- Units:  Both    English   Metric
« Previous Day
Next Day »
Daily Weekly Monthly Yearly Custom
  High: Low: Average:
Temperature: TemperatureF °F /  -17.8 °C 51.3 °F /  10.7 °C 52.7 °F /  11.5 °C
Dew Point: DewpointF °F /  -17.8 °C 35.4 °F /  1.9 °C 36 °F /  2.2 °C
Humidity: Humidity% 48% 52%
Wind Speed: WindSpeedMPHmph /  0km/h - 0.1mph /  0.2km/h
Wind Gust: WindSpeedGustMPHmph /  0km/h - -
Wind- - ENE
Pressure: PressureIn in /  0 hPa 29.98 in /  1015.1 hPa -
Precipitation: 0.00 in /  0 mm    
Historical Graphs
 
 
Tabular Data for Nil La, TWC-
Time Temperature Dew Point Pressure Wind Wind Speed Wind Gust Humidity Rainfall Rate (Hourly) solar Conditions
TemperatureF °F /  -17.8 °C DewpointF °F /  -17.8 °C PressureInin /  0hPa Calm     Humidity% HourlyPrecipInin /  0mm SolarRadiationWatts/m^2 W/m2 Conditions
00:00 56.5 °F /  13.6 °C 37.6 °F /  3.1 °C 30.01in /  1016.1hPa Calm     49% 0.00in /  0mm 0.0 W/m2
00:05 56.5 °F /  13.6 °C 37.6 °F /  3.1 °C 30.01in /  1016.1hPa Calm   1.0mph /  1.6km/h 49% 0.00in /  0mm 0.0 W/m2
00:10 56.1 °F /  13.4 °C 37.2 °F /  2.9 °C 30.01in /  1016.1hPa Calm   1.0mph /  1.6km/h 49% 0.00in /  0mm 0.0 W/m2
00:15 55.9 °F /  13.3 °C 37.0 °F /  2.8 °C 30.01in /  1016.1hPa ENE 2.0mph /  3.2km/h 2.0mph /  3.2km/h 49% 0.00in /  0mm 0.0 W/m2
00:20 55.9 °F /  13.3 °C 37.0 °F /  2.8 °C 30.01in /  1016.1hPa ENE 2.0mph /  3.2km/h 2.0mph /  3.2km/h 49% 0.00in /  0mm 0.0 W/m2
00:26 55.8 °F /  13.2 °C 36.9 °F /  2.7 °C 30.01in /  1016.1hPa NE 0.9mph /  1.4km/h 4.0mph /  6.4km/h 49% 0.00in /  0mm 0.0 W/m2
00:32 55.8 °F /  13.2 °C 36.9 °F /  2.7 °C 30.01in /  1016.1hPa ENE 0.9mph /  1.4km/h 1.0mph /  1.6km/h 49% 0.00in /  0mm 0.0 W/m2
00:37 55.8 °F /  13.2 °C 36.9 °F /  2.7 °C 30.01in /  1016.1hPa Calm   2.0mph /  3.2km/h 49% 0.00in /  0mm 0.0 W/m2
00:42 55.8 °F /  13.2 °C 36.3 °F /  2.4 °C 30.01in /  1016.1hPa Calm   1.0mph /  1.6km/h 48% 0.00in /  0mm 0.0 W/m2
00:47 55.8 °F /  13.2 °C 36.9 °F /  2.7 °C 30.01in /  1016.1hPa Calm   3.0mph /  4.8km/h 49% 0.00in /  0mm 0.0 W/m2
00:52 55.8 °F /  13.2 °C 36.3 °F /  2.4 °C 30.01in /  1016.1hPa Calm   1.0mph /  1.6km/h 48% 0.00in /  0mm 0.0 W/m2
00:57 55.8 °F /  13.2 °C 36.9 °F /  2.7 °C 30.01in /  1016.1hPa Calm   2.0mph /  3.2km/h 49% 0.00in /  0mm 0.0 W/m2
01:02 55.8 °F /  13.2 °C 36.9 °F /  2.7 °C 30.01in /  1016.1hPa Calm     49% 0.00in /  0mm 0.0 W/m2
01:07 55.6 °F /  13.1 °C 36.1 °F /  2.3 °C 30.01in /  1016.1hPa Calm     48% 0.00in /  0mm 0.0 W/m2
01:12 55.6 °F /  13.1 °C 36.7 °F /  2.6 °C 30.01in /  1016.1hPa Calm   1.0mph /  1.6km/h 49% 0.00in /  0mm 0.0 W/m2
01:17 55.4 °F /  13 °C 36.5 °F /  2.5 °C 30.01in /  1016.1hPa Calm     49% 0.00in /  0mm 0.0 W/m2
01:23 55.2 °F /  12.9 °C 36.9 °F /  2.7 °C 30.00in /  1015.8hPa Calm   1.0mph /  1.6km/h 50% 0.00in /  0mm 0.0 W/m2
01:28 55.0 °F /  12.8 °C 36.7 °F /  2.6 °C 30.00in /  1015.8hPa Calm   1.0mph /  1.6km/h 50% 0.00in /  0mm 0.0 W/m2
01:33 55.0 °F /  12.8 °C 36.7 °F /  2.6 °C 30.00in /  1015.8hPa Calm     50% 0.00in /  0mm 0.0 W/m2
01:38 54.9 °F /  12.7 °C 37.0 °F /  2.8 °C 30.00in /  1015.8hPa Calm     51% 0.00in /  0mm 0.0 W/m2
01:43 54.7 °F /  12.6 °C 36.9 °F /  2.7 °C 30.00in /  1015.8hPa Calm     51% 0.00in /  0mm 0.0 W/m2
01:48 54.3 °F /  12.4 °C 37.0 °F /  2.8 °C 30.00in /  1015.8hPa Calm     52% 0.00in /  0mm 0.0 W/m2
01:53 54.3 °F /  12.4 °C 37.6 °F /  3.1 °C 30.00in /  1015.8hPa Calm     53% 0.00in /  0mm 0.0 W/m2
01:58 54.1 °F /  12.3 °C 37.4 °F /  3 °C 30.00in /  1015.8hPa Calm     53% 0.00in /  0mm 0.0 W/m2
02:04 54.0 °F /  12.2 °C 37.2 °F /  2.9 °C 30.00in /  1015.8hPa Calm     53% 0.00in /  0mm 0.0 W/m2
02:09 54.0 °F /  12.2 °C 37.2 °F /  2.9 °C 30.00in /  1015.8hPa Calm     53% 0.00in /  0mm 0.0 W/m2
02:14 53.8 °F /  12.1 °C 37.6 °F /  3.1 °C 30.00in /  1015.8hPa Calm     54% 0.00in /  0mm 0.0 W/m2
02:19 53.8 °F /  12.1 °C 37.6 °F /  3.1 °C 30.00in /  1015.8hPa Calm     54% 0.00in /  0mm 0.0 W/m2
02:24 53.4 °F /  11.9 °C 37.2 °F /  2.9 °C 30.00in /  1015.8hPa Calm     54% 0.00in /  0mm 0.0 W/m2
02:29 53.4 °F /  11.9 °C 37.6 °F /  3.1 °C 30.00in /  1015.8hPa Calm     55% 0.00in /  0mm 0.0 W/m2
02:34 53.2 °F /  11.8 °C 37.4 °F /  3 °C 30.00in /  1015.8hPa Calm     55% 0.00in /  0mm 0.0 W/m2
02:39 53.1 °F /  11.7 °C 37.4 °F /  3 °C 30.00in /  1015.8hPa Calm     55% 0.00in /  0mm 0.0 W/m2
02:44 53.1 °F /  11.7 °C 37.4 °F /  3 °C 30.00in /  1015.8hPa Calm   2.0mph /  3.2km/h 55% 0.00in /  0mm 0.0 W/m2
02:49 52.9 °F /  11.6 °C 37.2 °F /  2.9 °C 30.00in /  1015.8hPa Calm     55% 0.00in /  0mm 0.0 W/m2
02:54 52.9 °F /  11.6 °C 37.2 °F /  2.9 °C 30.00in /  1015.8hPa Calm   2.0mph /  3.2km/h 55% 0.00in /  0mm 0.0 W/m2
03:00 52.9 °F /  11.6 °C 37.6 °F /  3.1 °C 29.99in /  1015.5hPa Calm     56% 0.00in /  0mm 0.0 W/m2
03:05 52.7 °F /  11.5 °C 37.0 °F /  2.8 °C 29.99in /  1015.5hPa Calm     55% 0.00in /  0mm 0.0 W/m2
03:10 52.5 °F /  11.4 °C 36.3 °F /  2.4 °C 29.99in /  1015.5hPa Calm     54% 0.00in /  0mm 0.0 W/m2
03:15 52.5 °F /  11.4 °C 36.3 °F /  2.4 °C 29.99in /  1015.5hPa Calm   1.0mph /  1.6km/h 54% 0.00in /  0mm 0.0 W/m2
03:20 52.5 °F /  11.4 °C 36.3 °F /  2.4 °C 29.99in /  1015.5hPa Calm   1.0mph /  1.6km/h 54% 0.00in /  0mm 0.0 W/m2
03:25 52.3 °F /  11.3 °C 36.1 °F /  2.3 °C 29.98in /  1015.1hPa Calm     54% 0.00in /  0mm 0.0 W/m2
03:30 52.3 °F /  11.3 °C 36.1 °F /  2.3 °C 29.98in /  1015.1hPa Calm     54% 0.00in /  0mm 0.0 W/m2
03:35 52.2 °F /  11.2 °C 36.0 °F /  2.2 °C 29.98in /  1015.1hPa Calm   1.0mph /  1.6km/h 54% 0.00in /  0mm 0.0 W/m2
03:41 52.2 °F /  11.2 °C 36.0 °F /  2.2 °C 29.98in /  1015.1hPa Calm     54% 0.00in /  0mm 0.0 W/m2
03:46 52.0 °F /  11.1 °C 35.8 °F /  2.1 °C 29.98in /  1015.1hPa Calm   1.0mph /  1.6km/h 54% 0.00in /  0mm 0.0 W/m2
03:51 52.0 °F /  11.1 °C 35.8 °F /  2.1 °C 29.98in /  1015.1hPa Calm     54% 0.00in /  0mm 0.0 W/m2
03:56 51.6 °F /  10.9 °C 36.0 °F /  2.2 °C 29.98in /  1015.1hPa Calm     55% 0.00in /  0mm 0.0 W/m2
04:01 51.4 °F /  10.8 °C 35.4 °F /  1.9 °C 29.98in /  1015.1hPa Calm   1.0mph /  1.6km/h 54% 0.00in /  0mm 0.0 W/m2
04:06 51.4 °F /  10.8 °C 35.8 °F /  2.1 °C 29.98in /  1015.1hPa NE 2.9mph /  4.7km/h 4.0mph /  6.4km/h 55% 0.00in /  0mm 0.0 W/m2
04:11 51.4 °F /  10.8 °C 35.8 °F /  2.1 °C 29.98in /  1015.1hPa Calm   3.0mph /  4.8km/h 55% 0.00in /  0mm 0.0 W/m2
04:16 51.4 °F /  10.8 °C 35.4 °F /  1.9 °C 29.98in /  1015.1hPa Calm   2.0mph /  3.2km/h 54% 0.00in /  0mm 0.0 W/m2
04:22 51.8 °F /  11 °C 35.6 °F /  2 °C 29.98in /  1015.1hPa Calm   1.0mph /  1.6km/h 54% 0.00in /  0mm 0.0 W/m2
04:27 52.0 °F /  11.1 °C 35.8 °F /  2.1 °C 29.98in /  1015.1hPa Calm   1.0mph /  1.6km/h 54% 0.00in /  0mm 0.0 W/m2
04:32 52.0 °F /  11.1 °C 35.8 °F /  2.1 °C 29.98in /  1015.1hPa Calm   2.0mph /  3.2km/h 54% 0.00in /  0mm 0.0 W/m2
04:37 51.8 °F /  11 °C 35.6 °F /  2 °C 29.98in /  1015.1hPa Calm   1.0mph /  1.6km/h 54% 0.00in /  0mm 0.0 W/m2
04:42 51.6 °F /  10.9 °C 35.6 °F /  2 °C 29.98in /  1015.1hPa Calm   3.0mph /  4.8km/h 54% 0.00in /  0mm 0.0 W/m2
04:47 51.6 °F /  10.9 °C 35.6 °F /  2 °C 29.98in /  1015.1hPa Calm   2.0mph /  3.2km/h 54% 0.00in /  0mm 0.0 W/m2
04:52 51.4 °F /  10.8 °C 35.4 °F /  1.9 °C 29.98in /  1015.1hPa Calm   1.0mph /  1.6km/h 54% 0.00in /  0mm 0.0 W/m2
04:58 51.4 °F /  10.8 °C 35.4 °F /  1.9 °C 29.98in /  1015.1hPa Calm     54% 0.00in /  0mm 0.0 W/m2
05:03 51.3 °F /  10.7 °C 35.6 °F /  2 °C 29.99in /  1015.5hPa Calm     55% 0.00in /  0mm 0.0 W/m2
Olympia, Windhoek, Namibia
Compliments of Weather Underground - 2 mb